Time;durP1;ratioP1;P1;durP2;ratioP2;P2;SDS_P1;SDS_P2;PMS_P1;PMS_P2;Temp;Humidity;BMP_temperature;BMP_pressure;BME280_temperature;BME280_humidity;BME280_pressure;Samples;Min_cycle;Max_cycle;Signal;HPM_P1;HPM_P2
2021/07/18 00:00:19;;;;;;;17.03;15.33;;;;;;;22.13;89.07;96771.38;4993478;28;20628;-62
2021/07/18 00:02:44;;;;;;;17.37;15.60;;;;;;;22.03;89.39;96765.38;4988058;28;20178;-63
2021/07/18 00:05:10;;;;;;;16.17;14.57;;;;;;;22.01;89.40;96770.22;4988053;28;20205;-63
2021/07/18 00:07:37;;;;;;;17.50;15.77;;;;;;;21.98;89.20;96770.75;4975254;28;20170;-61
2021/07/18 00:10:03;;;;;;;20.03;15.17;;;;;;;22.01;88.94;96765.63;4975196;28;20268;-63
2021/07/18 00:12:29;;;;;;;17.93;14.73;;;;;;;22.03;88.96;96768.03;4974919;28;20475;-62
2021/07/18 00:14:54;;;;;;;15.90;14.40;;;;;;;21.96;88.89;96767.59;4973357;28;20438;-62
2021/07/18 00:17:20;;;;;;;15.67;14.07;;;;;;;21.95;89.05;96764.13;4975044;28;20181;-62
2021/07/18 00:19:45;;;;;;;15.37;13.77;;;;;;;21.97;88.46;96769.19;4979279;28;20184;-62
2021/07/18 00:22:11;;;;;;;16.93;13.67;;;;;;;21.93;88.52;96768.97;4994278;28;20174;-63
2021/07/18 00:24:36;;;;;;;17.10;14.37;;;;;;;21.89;88.90;96770.63;4994013;28;20197;-62
2021/07/18 00:27:02;;;;;;;16.23;14.63;;;;;;;21.90;88.75;96771.41;4994274;28;20224;-61
2021/07/18 00:29:28;;;;;;;15.17;13.67;;;;;;;21.95;88.36;96772.16;4993280;28;20201;-62
2021/07/18 00:31:54;;;;;;;15.87;14.27;;;;;;;21.93;88.43;96768.16;4994382;28;20518;-62
2021/07/18 00:34:20;;;;;;;15.37;13.90;;;;;;;21.94;88.41;96767.09;4989118;28;20209;-62
2021/07/18 00:36:46;;;;;;;16.63;14.97;;;;;;;21.92;88.34;96769.25;4974859;28;20687;-62
2021/07/18 00:39:11;;;;;;;15.77;14.20;;;;;;;21.94;88.38;96765.19;4974713;28;20417;-62
2021/07/18 00:41:37;;;;;;;15.37;13.90;;;;;;;21.93;88.02;96763.59;4974522;28;20362;-62
2021/07/18 00:44:03;;;;;;;14.67;13.20;;;;;;;21.82;88.56;96766.69;4974125;28;20245;-62
2021/07/18 00:46:28;;;;;;;14.83;13.30;;;;;;;21.81;88.48;96760.56;4974416;28;20198;-61
2021/07/18 00:48:53;;;;;;;14.23;12.83;;;;;;;21.79;88.50;96749.34;4974706;28;20428;-62
2021/07/18 00:51:19;;;;;;;15.63;14.03;;;;;;;21.78;88.40;96757.59;4994177;28;20176;-61
2021/07/18 00:53:45;;;;;;;16.27;13.53;;;;;;;21.76;88.07;96759.78;4993783;28;20201;-62
2021/07/18 00:56:11;;;;;;;12.90;11.70;;;;;;;21.68;87.93;96758.53;4994215;28;20165;-62
2021/07/18 00:58:37;;;;;;;14.13;12.43;;;;;;;21.67;87.84;96759.59;4994097;28;20253;-61
2021/07/18 01:01:02;;;;;;;14.47;12.97;;;;;;;21.66;87.82;96759.91;4996737;28;20223;-62
2021/07/18 01:03:28;;;;;;;14.30;12.80;;;;;;;21.60;87.80;96756.50;5012059;28;20502;-62
2021/07/18 01:05:55;;;;;;;13.33;12.10;;;;;;;21.58;87.65;96755.97;4992252;28;20201;-62
2021/07/18 01:08:21;;;;;;;13.30;12.00;;;;;;;21.48;87.68;96754.22;4978745;28;20418;-62
2021/07/18 01:10:46;;;;;;;16.83;12.13;;;;;;;21.48;87.54;96761.44;4974662;28;20409;-61
2021/07/18 01:13:11;;;;;;;13.50;12.10;;;;;;;21.48;87.46;96761.44;4974140;28;20166;-62
2021/07/18 01:15:38;;;;;;;15.60;12.20;;;;;;;21.44;87.38;96758.56;4974346;28;20665;-62
2021/07/18 01:18:04;;;;;;;13.50;12.03;;;;;;;21.37;87.55;96754.63;4973278;28;20574;-62
2021/07/18 01:20:29;;;;;;;13.33;12.13;;;;;;;21.40;87.23;96754.84;4974577;28;20493;-62
2021/07/18 01:22:55;;;;;;;13.23;10.87;;;;;;;21.34;87.44;96745.28;4987206;28;20212;-62
2021/07/18 01:25:21;;;;;;;13.37;12.17;;;;;;;21.27;87.25;96747.50;4993820;28;20233;-62
2021/07/18 01:27:48;;;;;;;11.83;10.50;;;;;;;21.28;87.13;96742.94;4993804;28;20177;-62
2021/07/18 01:30:14;;;;;;;12.93;11.07;;;;;;;21.23;86.62;96746.47;4993811;28;20165;-62
2021/07/18 01:32:41;;;;;;;11.20;10.00;;;;;;;21.21;86.29;96742.50;4993544;28;20412;-62
2021/07/18 01:35:07;;;;;;;11.80;9.80;;;;;;;21.17;86.11;96734.25;4993799;28;20185;-62
2021/07/18 01:37:32;;;;;;;9.60;8.60;;;;;;;21.13;85.78;96740.44;4983594;28;20483;-62
2021/07/18 01:39:58;;;;;;;10.90;8.70;;;;;;;21.09;85.04;96736.72;4980884;28;20179;-61
2021/07/18 01:42:24;;;;;;;9.43;8.53;;;;;;;21.01;84.95;96740.81;4974215;28;20170;-62
2021/07/18 01:44:50;;;;;;;9.30;8.33;;;;;;;20.98;84.83;96745.91;4973731;28;20205;-62
2021/07/18 01:47:16;;;;;;;9.90;8.60;;;;;;;20.90;84.71;96749.97;4974260;28;20492;-62
2021/07/18 01:49:41;;;;;;;10.23;9.20;;;;;;;20.86;84.79;96748.13;4974331;28;20531;-62
2021/07/18 01:52:07;;;;;;;9.13;8.30;;;;;;;20.90;84.19;96749.97;4974460;28;20629;-62
2021/07/18 01:54:33;;;;;;;8.83;7.93;;;;;;;20.92;83.68;96750.50;4984317;28;20202;-62
2021/07/18 01:57:10;;;;;;;10.47;8.63;;;;;;;20.88;83.83;96741.44;4993940;28;20962;-62
2021/07/18 01:59:36;;;;;;;8.33;7.33;;;;;;;20.83;83.64;96736.16;4993607;28;20169;-62
2021/07/18 02:02:01;;;;;;;8.80;7.90;;;;;;;20.78;83.71;96738.84;5005153;28;20430;-62
2021/07/18 02:04:26;;;;;;;12.57;8.70;;;;;;;20.68;83.72;96743.47;5012747;28;20189;-62
2021/07/18 02:06:52;;;;;;;8.33;7.40;;;;;;;20.68;83.81;96738.13;5013062;28;20270;-62
2021/07/18 02:09:17;;;;;;;10.10;8.33;;;;;;;20.63;83.96;96746.19;5000988;28;20256;-62
2021/07/18 02:11:43;;;;;;;8.60;7.73;;;;;;;20.64;83.41;96743.25;4995196;28;20176;-62
2021/07/18 02:14:08;;;;;;;9.07;8.20;;;;;;;20.58;83.84;96740.91;4996619;28;20524;-62
2021/07/18 02:16:33;;;;;;;8.23;7.43;;;;;;;20.55;83.62;96742.25;4996984;28;20208;-62
2021/07/18 02:19:08;;;;;;;8.53;7.60;;;;;;;20.53;83.67;96754.31;4996946;28;20181;-62
2021/07/18 02:21:35;;;;;;;12.37;8.83;;;;;;;20.38;84.47;96749.88;4996903;28;20169;-62
2021/07/18 02:24:01;;;;;;;9.20;8.23;;;;;;;20.41;84.24;96744.78;4989226;28;21145;-62
2021/07/18 02:26:28;;;;;;;9.83;7.77;;;;;;;20.37;84.21;96756.28;4977231;28;20449;-62
2021/07/18 02:28:54;;;;;;;11.10;7.77;;;;;;;20.38;83.97;96753.31;4977318;28;20535;-62
2021/07/18 02:31:21;;;;;;;7.73;7.03;;;;;;;20.35;83.98;96745.06;4977201;28;20421;-62
2021/07/18 02:33:46;;;;;;;6.80;6.10;;;;;;;20.32;82.60;96741.09;4976790;28;20197;-62
2021/07/18 02:36:11;;;;;;;7.40;6.23;;;;;;;20.25;82.22;96751.28;4977214;28;20405;-62
2021/07/18 02:38:37;;;;;;;9.27;6.70;;;;;;;20.27;82.29;96746.44;4977995;28;20309;-62
2021/07/18 02:41:02;;;;;;;7.60;5.77;;;;;;;20.23;82.32;96750.78;4991593;28;20177;-62
2021/07/18 02:43:28;;;;;;;8.00;6.43;;;;;;;20.27;81.75;96751.00;4976500;28;20171;-63
2021/07/18 02:45:53;;;;;;;6.63;6.00;;;;;;;20.21;81.94;96750.25;4976695;28;20205;-62
2021/07/18 02:48:20;;;;;;;7.63;6.50;;;;;;;20.23;81.80;96748.09;4976830;28;20297;-62
2021/07/18 02:50:45;;;;;;;6.63;5.90;;;;;;;20.28;81.52;96753.41;4976753;28;20174;-62
2021/07/18 02:53:11;;;;;;;7.33;6.43;;;;;;;20.27;81.20;96759.03;4975191;28;20414;-62
2021/07/18 02:55:36;;;;;;;7.10;6.40;;;;;;;20.23;81.39;96761.44;4979121;28;20194;-62
2021/07/18 02:58:02;;;;;;;8.20;6.07;;;;;;;20.28;81.59;96764.06;4996208;28;20193;-62
2021/07/18 03:00:27;;;;;;;8.50;7.23;;;;;;;20.22;81.79;96756.34;4996267;28;20170;-62
2021/07/18 03:02:53;;;;;;;7.23;6.53;;;;;;;20.11;82.32;96755.59;5014197;28;20227;-62
2021/07/18 03:05:19;;;;;;;10.97;7.53;;;;;;;20.13;82.84;96752.66;5015502;28;20200;-62
2021/07/18 03:07:46;;;;;;;7.37;6.77;;;;;;;20.12;82.87;96756.41;5015519;28;20686;-62
2021/07/18 03:10:14;;;;;;;9.60;8.03;;;;;;;20.08;83.15;96761.50;5013015;28;20415;-62
2021/07/18 03:12:39;;;;;;;8.20;6.87;;;;;;;19.97;83.29;96757.28;4995649;28;20404;-62
2021/07/18 03:15:08;;;;;;;9.93;7.53;;;;;;;19.97;83.52;96759.16;4995834;28;20846;-62
2021/07/18 03:17:33;;;;;;;8.33;7.53;;;;;;;19.99;83.56;96754.34;4995795;28;20256;-62
2021/07/18 03:19:59;;;;;;;9.30;7.17;;;;;;;19.82;84.62;96754.69;4995629;28;20455;-62
2021/07/18 03:22:26;;;;;;;9.57;7.97;;;;;;;19.83;84.81;96758.16;4995019;28;20197;-62
2021/07/18 03:24:51;;;;;;;9.33;7.90;;;;;;;19.83;84.96;96758.16;4994132;28;20910;-62
2021/07/18 03:27:17;;;;;;;9.30;8.40;;;;;;;19.79;85.08;96762.44;4976254;28;20404;-62
2021/07/18 03:29:42;;;;;;;10.83;9.70;;;;;;;19.76;85.27;96761.13;4976310;28;20174;-62
2021/07/18 03:32:08;;;;;;;9.50;8.60;;;;;;;19.76;84.94;96757.66;4976024;28;20253;-62
2021/07/18 03:34:33;;;;;;;9.60;8.33;;;;;;;19.80;84.90;96751.50;4975571;28;20248;-62
2021/07/18 03:36:59;;;;;;;8.33;7.40;;;;;;;19.78;85.06;96760.84;4976006;28;20206;-62
2021/07/18 03:39:24;;;;;;;10.30;8.33;;;;;;;19.72;84.62;96753.94;4975914;28;20178;-62
2021/07/18 03:41:50;;;;;;;9.47;7.60;;;;;;;19.67;84.69;96761.97;4994122;28;20209;-62
2021/07/18 03:44:15;;;;;;;8.77;7.30;;;;;;;19.62;84.62;96760.09;4994986;28;20193;-62
2021/07/18 03:46:41;;;;;;;7.80;7.17;;;;;;;19.62;84.76;96744.09;4995028;28;20205;-62
2021/07/18 03:49:06;;;;;;;7.07;6.43;;;;;;;19.59;83.86;96754.50;4995144;28;20249;-62
2021/07/18 03:51:32;;;;;;;9.50;7.47;;;;;;;19.48;84.37;96751.09;4995153;28;20166;-62
2021/07/18 03:53:57;;;;;;;7.37;6.73;;;;;;;19.55;84.01;96758.81;4994566;28;20189;-62
2021/07/18 03:56:23;;;;;;;7.77;6.73;;;;;;;19.53;83.59;96756.41;4977835;28;20177;-61
2021/07/18 03:58:50;;;;;;;8.07;6.60;;;;;;;19.39;84.10;96760.72;4975612;28;20170;-62
2021/07/18 04:01:15;;;;;;;7.80;6.13;;;;;;;19.38;84.31;96753.81;4986591;28;20176;-62
2021/07/18 04:03:41;;;;;;;6.93;6.33;;;;;;;19.37;83.99;96760.19;5005038;28;20446;-62
2021/07/18 04:06:07;;;;;;;6.70;6.00;;;;;;;19.33;83.76;96762.59;4994827;28;20276;-62
2021/07/18 04:08:32;;;;;;;6.90;6.30;;;;;;;19.06;84.10;96766.66;4994774;28;20520;-62
2021/07/18 04:10:58;;;;;;;8.20;7.00;;;;;;;18.82;85.80;96763.75;4994871;28;20649;-62
2021/07/18 04:13:23;;;;;;;8.10;7.13;;;;;;;18.66;87.37;96764.78;4994358;28;20216;-62
2021/07/18 04:15:48;;;;;;;8.40;7.53;;;;;;;18.52;88.21;96760.25;4993962;28;20169;-62
2021/07/18 04:18:14;;;;;;;9.97;7.47;;;;;;;18.37;89.73;96772.47;4975377;28;20173;-62
2021/07/18 04:20:39;;;;;;;8.40;7.47;;;;;;;18.45;89.23;96768.50;4975637;28;20208;-62
2021/07/18 04:23:07;;;;;;;7.73;7.00;;;;;;;18.62;88.63;96771.72;4974823;28;20249;-62
2021/07/18 04:25:32;;;;;;;8.30;7.50;;;;;;;18.81;88.16;96766.66;4981222;28;20706;-62
2021/07/18 04:27:58;;;;;;;8.20;7.40;;;;;;;18.85;87.86;96773.03;4994597;28;20413;-62
2021/07/18 04:30:23;;;;;;;10.20;8.00;;;;;;;18.79;87.69;96768.81;4994606;28;20524;-62
2021/07/18 04:32:49;;;;;;;8.10;7.40;;;;;;;18.63;88.38;96769.84;4994194;28;20223;-62
2021/07/18 04:35:15;;;;;;;7.50;6.33;;;;;;;18.59;89.02;96776.78;4977399;28;20572;-62
2021/07/18 04:37:41;;;;;;;7.13;6.03;;;;;;;18.68;88.17;96775.19;4974907;28;20410;-62
2021/07/18 04:40:07;;;;;;;8.10;6.03;;;;;;;18.65;87.79;96775.69;4975145;28;20193;-61
2021/07/18 04:42:32;;;;;;;6.67;6.07;;;;;;;18.53;88.38;96775.97;4974860;28;20185;-62
2021/07/18 04:44:58;;;;;;;9.07;6.70;;;;;;;18.63;87.72;96769.84;4974158;28;20835;-63
2021/07/18 04:47:24;;;;;;;7.23;6.53;;;;;;;18.48;88.72;96769.84;4975014;28;20229;-62
2021/07/18 04:49:50;;;;;;;6.50;6.00;;;;;;;18.62;88.37;96778.91;4988458;28;20185;-62
2021/07/18 04:52:17;;;;;;;8.73;5.70;;;;;;;18.72;88.09;96770.91;4994182;28;20170;-62
2021/07/18 04:54:43;;;;;;;7.37;6.03;;;;;;;18.55;88.05;96773.06;4993777;28;20782;-62
2021/07/18 04:57:09;;;;;;;5.70;5.20;;;;;;;18.74;88.16;96779.44;4992935;28;20423;-62
2021/07/18 04:59:35;;;;;;;6.57;5.40;;;;;;;18.73;87.25;96781.31;4993979;28;20224;-62
2021/07/18 05:02:00;;;;;;;6.40;5.70;;;;;;;18.59;87.79;96788.22;5005276;28;20817;-62
2021/07/18 05:04:25;;;;;;;6.63;5.90;;;;;;;18.65;87.77;96789.00;4998018;28;20201;-61
2021/07/18 05:06:51;;;;;;;6.13;5.63;;;;;;;18.85;87.26;96789.03;4985019;28;20206;-62
2021/07/18 05:09:16;;;;;;;5.97;5.47;;;;;;;19.01;87.17;96790.59;4974699;28;20696;-62
2021/07/18 05:11:41;;;;;;;5.60;4.70;;;;;;;19.09;86.98;96784.75;4973426;28;20530;-62
2021/07/18 05:14:07;;;;;;;5.70;5.30;;;;;;;19.16;86.45;96787.94;4974179;28;20638;-62
2021/07/18 05:16:32;;;;;;;5.60;5.10;;;;;;;19.23;86.14;96783.94;4974515;28;20174;-62
2021/07/18 05:18:57;;;;;;;7.03;5.20;;;;;;;19.28;86.19;96791.91;4974469;28;20166;-62
2021/07/18 05:21:23;;;;;;;5.50;5.00;;;;;;;19.38;85.68;96796.44;4980745;28;20241;-62
2021/07/18 05:23:48;;;;;;;4.83;4.43;;;;;;;19.42;85.57;96792.19;4993449;28;20189;-62
2021/07/18 05:26:14;;;;;;;6.77;4.83;;;;;;;19.46;85.34;96794.03;4993855;28;20287;-62
2021/07/18 05:28:39;;;;;;;5.23;4.73;;;;;;;19.51;85.01;96792.41;4993761;28;20162;-62
2021/07/18 05:31:04;;;;;;;7.43;3.53;;;;;;;19.54;84.08;96792.66;4993960;28;20165;-62
2021/07/18 05:33:30;;;;;;;5.20;3.93;;;;;;;19.57;83.63;96794.78;4993421;28;20165;-62
2021/07/18 05:35:55;;;;;;;4.17;3.47;;;;;;;19.60;82.67;96790.78;4991981;28;20170;-62
2021/07/18 05:38:20;;;;;;;4.10;3.70;;;;;;;19.59;82.17;96784.66;4993783;28;20173;-62
2021/07/18 05:40:46;;;;;;;5.87;4.03;;;;;;;19.67;82.03;96785.97;4990305;28;20178;-62
2021/07/18 05:43:11;;;;;;;4.97;3.50;;;;;;;19.74;81.63;96781.13;4974046;28;20167;-63
2021/07/18 05:45:36;;;;;;;4.70;3.50;;;;;;;19.75;81.51;96794.19;4974176;28;20210;-64
2021/07/18 05:48:02;;;;;;;4.80;3.50;;;;;;;19.82;81.18;96784.03;4978267;28;20170;-63
2021/07/18 05:50:27;;;;;;;3.63;3.33;;;;;;;19.87;81.43;96792.03;4978338;28;20177;-63
2021/07/18 05:52:53;;;;;;;4.20;3.40;;;;;;;19.79;80.60;96789.09;4977637;28;20253;-64
2021/07/18 05:55:18;;;;;;;3.23;2.93;;;;;;;19.81;79.21;96797.63;4977641;28;20194;-63
2021/07/18 05:57:43;;;;;;;3.40;3.10;;;;;;;19.80;79.63;96799.50;4990396;28;20170;-63
2021/07/18 06:00:12;;;;;;;3.20;2.90;;;;;;;19.90;79.74;96794.13;4977917;28;20220;-63
2021/07/18 06:02:37;;;;;;;4.57;2.80;;;;;;;19.93;78.85;96793.59;5010059;28;20514;-64
2021/07/18 06:05:04;;;;;;;9.53;3.10;;;;;;;19.85;78.06;96802.16;5016559;28;20451;-63
2021/07/18 06:07:29;;;;;;;3.07;2.70;;;;;;;19.97;78.36;96799.16;5016938;28;20215;-63
2021/07/18 06:09:54;;;;;;;4.47;3.00;;;;;;;20.02;78.88;96807.94;5016570;28;20416;-63
2021/07/18 06:12:20;;;;;;;5.40;2.80;;;;;;;20.08;78.10;96809.53;5013359;28;20196;-63
2021/07/18 06:14:45;;;;;;;3.03;2.80;;;;;;;20.10;77.07;96807.38;4996581;28;20225;-63
2021/07/18 06:17:11;;;;;;;4.77;2.90;;;;;;;20.11;77.01;96813.53;4997078;28;20172;-63
2021/07/18 06:19:38;;;;;;;3.47;2.73;;;;;;;20.15;76.66;96810.03;4996854;28;20686;-63
2021/07/18 06:22:04;;;;;;;3.00;2.80;;;;;;;20.21;76.57;96814.31;4996862;28;20635;-63
2021/07/18 06:24:29;;;;;;;7.20;2.70;;;;;;;20.29;76.81;96800.34;4996292;28;20511;-63
2021/07/18 06:26:54;;;;;;;3.10;2.80;;;;;;;20.31;76.84;96811.56;4996265;28;20201;-63
2021/07/18 06:29:20;;;;;;;3.40;3.17;;;;;;;20.27;76.83;96821.19;4983120;28;20178;-63
2021/07/18 06:31:46;;;;;;;2.70;2.50;;;;;;;20.34;75.61;96818.25;4977271;28;20189;-63
2021/07/18 06:34:11;;;;;;;3.43;2.50;;;;;;;20.35;75.23;96817.97;4975432;28;20194;-63
2021/07/18 06:36:36;;;;;;;2.93;2.50;;;;;;;20.39;75.91;96821.69;4977071;28;20166;-63
2021/07/18 06:39:02;;;;;;;2.87;2.50;;;;;;;20.47;75.36;96823.75;4982058;28;20636;-63
2021/07/18 06:41:28;;;;;;;4.83;2.50;;;;;;;20.48;75.51;96824.56;4996483;28;20172;-63
2021/07/18 06:43:53;;;;;;;2.90;2.70;;;;;;;20.44;75.62;96820.84;4994701;28;20428;-63
2021/07/18 06:46:18;;;;;;;6.60;2.90;;;;;;;20.48;75.57;96812.00;4996024;28;20237;-63
2021/07/18 06:48:44;;;;;;;2.40;2.20;;;;;;;20.57;75.75;96814.06;4996541;28;20257;-63
2021/07/18 06:51:09;;;;;;;4.67;2.90;;;;;;;20.65;75.71;96819.66;4996434;28;20174;-63
2021/07/18 06:53:35;;;;;;;3.47;2.50;;;;;;;20.69;75.24;96812.66;4992052;28;20257;-63
2021/07/18 06:56:00;;;;;;;3.57;2.83;;;;;;;20.73;75.27;96813.69;4983669;28;20177;-63
2021/07/18 06:58:25;;;;;;;3.47;2.50;;;;;;;20.78;75.45;96818.22;4995183;28;20176;-63
2021/07/18 07:00:51;;;;;;;4.03;2.87;;;;;;;20.86;75.99;96821.09;4998019;28;20636;-63
2021/07/18 07:03:17;;;;;;;4.77;2.97;;;;;;;20.89;76.19;96812.50;5015268;28;20173;-63
2021/07/18 07:05:42;;;;;;;4.80;3.20;;;;;;;20.83;75.71;96815.50;5015477;28;20200;-63
2021/07/18 07:08:08;;;;;;;4.20;3.40;;;;;;;20.94;75.96;96811.69;5015580;28;20843;-63
2021/07/18 07:10:33;;;;;;;6.80;2.70;;;;;;;21.03;75.71;96812.69;5008932;28;20624;-63
2021/07/18 07:12:58;;;;;;;2.97;2.77;;;;;;;21.03;75.80;96818.03;4994189;28;20182;-63
2021/07/18 07:15:24;;;;;;;4.60;3.30;;;;;;;21.03;76.79;96826.06;4995542;28;20659;-64
2021/07/18 07:17:49;;;;;;;3.37;3.00;;;;;;;21.05;76.51;96824.69;4995691;28;20211;-63
2021/07/18 07:20:15;;;;;;;5.03;2.90;;;;;;;20.93;74.59;96828.78;4995601;28;20651;-63
2021/07/18 07:22:41;;;;;;;5.10;3.00;;;;;;;20.97;76.67;96827.94;4995205;28;20257;-64
2021/07/18 07:25:14;;;;;;;2.60;2.40;;;;;;;20.97;75.74;96835.16;4981595;28;20284;-63
2021/07/18 07:27:41;;;;;;;5.20;2.70;;;;;;;21.08;76.17;96818.00;4976368;28;20885;-63
2021/07/18 07:30:08;;;;;;;4.10;2.80;;;;;;;21.15;77.21;96824.63;4976339;28;20450;-63
2021/07/18 07:32:34;;;;;;;3.50;2.87;;;;;;;21.23;76.56;96820.53;4975835;28;20402;-63
2021/07/18 07:35:00;;;;;;;4.83;2.97;;;;;;;21.26;75.30;96823.44;4975735;28;20433;-63
2021/07/18 07:37:26;;;;;;;3.27;2.60;;;;;;;21.32;75.45;96819.63;4976127;28;20581;-63
2021/07/18 07:39:52;;;;;;;2.97;2.77;;;;;;;21.31;75.04;96825.25;4978222;28;20178;-63
2021/07/18 07:42:18;;;;;;;7.60;2.50;;;;;;;21.39;76.80;96827.34;4975960;28;20508;-63
2021/07/18 07:44:44;;;;;;;5.23;3.20;;;;;;;21.44;76.36;96822.75;4975337;28;20198;-63
2021/07/18 07:47:09;;;;;;;5.27;3.10;;;;;;;21.50;77.30;96823.47;4975689;28;20437;-63
2021/07/18 07:49:35;;;;;;;3.90;3.20;;;;;;;21.55;75.67;96830.66;4975766;28;20586;-63
2021/07/18 07:52:00;;;;;;;3.63;3.33;;;;;;;21.63;75.70;96822.81;4975755;28;20257;-63
2021/07/18 07:54:25;;;;;;;3.90;2.73;;;;;;;21.63;74.78;96827.38;4983198;28;20220;-63
2021/07/18 07:56:51;;;;;;;2.90;2.70;;;;;;;21.70;75.05;96825.16;4983791;28;20178;-64
2021/07/18 07:59:16;;;;;;;3.80;2.70;;;;;;;21.80;75.65;96820.50;4975448;28;20177;-63
2021/07/18 08:01:41;;;;;;;4.40;2.73;;;;;;;21.75;74.44;96823.22;4993053;28;20308;-63
2021/07/18 08:04:07;;;;;;;3.47;3.17;;;;;;;21.64;77.74;96831.63;5014089;28;20200;-63
2021/07/18 08:06:32;;;;;;;3.17;2.90;;;;;;;21.81;76.13;96826.66;5014320;28;20222;-63
2021/07/18 08:08:58;;;;;;;3.27;2.97;;;;;;;21.94;76.59;96826.75;5014155;28;20255;-63
2021/07/18 08:11:23;;;;;;;3.50;3.20;;;;;;;22.06;76.40;96818.31;5004484;28;20235;-63
2021/07/18 08:13:48;;;;;;;3.13;2.93;;;;;;;22.04;74.24;96817.81;4994269;28;20203;-64
2021/07/18 08:16:14;;;;;;;3.70;2.70;;;;;;;22.09;74.05;96813.19;4994905;28;20166;-63
2021/07/18 08:18:40;;;;;;;5.03;2.97;;;;;;;22.07;72.65;96815.34;4994684;28;20181;-63
2021/07/18 08:21:06;;;;;;;4.00;3.27;;;;;;;21.92;72.16;96817.44;4994612;28;20223;-64
2021/07/18 08:23:32;;;;;;;3.47;2.90;;;;;;;22.10;73.96;96814.75;4994167;28;20178;-63
2021/07/18 08:25:57;;;;;;;3.80;2.43;;;;;;;22.17;72.18;96817.91;4986874;28;20536;-63
2021/07/18 08:28:24;;;;;;;3.20;2.90;;;;;;;22.27;72.91;96812.41;4975160;28;20418;-64
2021/07/18 08:30:50;;;;;;;4.23;3.13;;;;;;;22.44;74.06;96814.59;4975006;28;20170;-63
2021/07/18 08:33:15;;;;;;;2.80;2.60;;;;;;;22.57;73.25;96816.59;4974676;28;20954;-64
2021/07/18 08:35:41;;;;;;;3.43;3.03;;;;;;;22.66;72.73;96806.00;4991283;28;20438;-64
2021/07/18 08:38:06;;;;;;;4.87;3.27;;;;;;;22.68;71.84;96815.34;4994212;28;20173;-64
2021/07/18 08:40:34;;;;;;;6.70;3.00;;;;;;;22.78;72.67;96817.06;4990196;28;20178;-63
2021/07/18 08:42:59;;;;;;;3.50;3.00;;;;;;;22.86;74.70;96819.91;4981656;28;20269;-65
2021/07/18 08:45:25;;;;;;;18.20;3.80;;;;;;;22.68;75.25;96818.03;4971169;28;21078;-65
2021/07/18 08:47:50;;;;;;;3.00;2.80;;;;;;;22.81;73.05;96819.19;4971762;28;20273;-65
2021/07/18 08:50:16;;;;;;;4.40;3.07;;;;;;;22.99;72.48;96813.00;4971436;28;20637;-64
2021/07/18 08:52:51;;;;;;;5.80;3.10;;;;;;;23.03;71.95;96813.97;4981003;28;20192;-65
2021/07/18 08:55:16;;;;;;;3.53;2.70;;;;;;;22.96;71.27;96813.56;4990512;28;20197;-64
2021/07/18 08:57:42;;;;;;;3.60;2.63;;;;;;;22.81;70.04;96805.78;4990178;28;20490;-64
2021/07/18 09:00:08;;;;;;;2.90;2.60;;;;;;;22.90;71.78;96812.84;4989337;28;20269;-62
2021/07/18 09:02:34;;;;;;;3.80;2.90;;;;;;;23.18;70.77;96805.69;5005951;28;20172;-66
2021/07/18 09:05:00;;;;;;;5.33;2.87;;;;;;;23.22;70.90;96812.88;5009923;28;20438;-64
2021/07/18 09:07:25;;;;;;;4.10;2.73;;;;;;;23.33;71.17;96808.16;5010117;28;20633;-65
2021/07/18 09:10:01;;;;;;;2.97;2.67;;;;;;;23.54;69.01;96814.72;4999760;28;20272;-64
2021/07/18 09:12:26;;;;;;;4.63;3.10;;;;;;;23.68;68.63;96806.69;4990101;28;20591;-63
2021/07/18 09:14:57;;;;;;;3.27;2.97;;;;;;;23.52;71.35;96808.09;4989487;28;20440;-62
2021/07/18 09:17:22;;;;;;;3.63;2.73;;;;;;;23.71;70.16;96801.53;4971139;28;20182;-63
2021/07/18 09:19:48;;;;;;;5.90;3.10;;;;;;;23.79;71.91;96808.09;4971028;28;20456;-62
2021/07/18 09:22:15;;;;;;;3.50;2.83;;;;;;;23.91;69.17;96800.31;4973848;28;20198;-63
2021/07/18 09:24:45;;;;;;;3.37;2.77;;;;;;;23.91;68.13;96803.00;4974341;28;20573;-63
2021/07/18 09:27:25;;;;;;;4.20;2.83;;;;;;;23.97;69.43;96799.13;4974277;28;20507;-63
2021/07/18 09:30:08;;;;;;;3.60;2.80;;;;;;;23.93;70.91;96804.31;4975537;28;20409;-62
2021/07/18 09:32:36;;;;;;;3.17;2.70;;;;;;;24.15;68.81;96798.25;4994293;28;20416;-62
2021/07/18 09:35:15;;;;;;;5.37;3.20;;;;;;;24.30;69.88;96792.53;4992768;28;20531;-62
2021/07/18 09:37:43;;;;;;;8.70;2.73;;;;;;;24.38;67.72;96797.22;4994060;28;20419;-63
2021/07/18 09:40:11;;;;;;;5.53;2.87;;;;;;;24.54;68.24;96793.06;4993612;28;20957;-62
2021/07/18 09:42:42;;;;;;;4.17;2.73;;;;;;;24.47;67.23;96795.38;4993797;28;20417;-65
2021/07/18 09:45:21;;;;;;;5.87;2.70;;;;;;;24.60;68.67;96789.19;4988292;28;20472;-65
2021/07/18 09:48:00;;;;;;;4.90;3.37;;;;;;;24.76;65.98;96790.44;4974512;28;20416;-63
2021/07/18 09:50:36;;;;;;;3.53;3.23;;;;;;;24.81;66.46;96782.25;4974587;28;20424;-64
2021/07/18 09:53:15;;;;;;;2.83;2.60;;;;;;;24.95;66.71;96785.66;4972845;28;20428;-65
2021/07/18 09:56:09;;;;;;;5.73;3.00;;;;;;;25.09;66.38;96772.94;4974313;28;20426;-65
2021/07/18 09:58:39;;;;;;;3.70;2.63;;;;;;;25.23;66.27;96779.03;4968438;28;20429;-64
2021/07/18 10:01:08;;;;;;;3.17;2.97;;;;;;;25.37;64.77;96771.69;4983069;28;20426;-65
2021/07/18 10:03:34;;;;;;;5.07;3.17;;;;;;;25.49;65.16;96773.03;4973364;28;20500;-65
2021/07/18 10:06:27;;;;;;;3.93;2.73;;;;;;;25.55;64.73;96775.25;4974248;28;20963;-64
2021/07/18 10:08:58;;;;;;;3.57;2.40;;;;;;;25.65;64.70;96769.63;4971410;28;20536;-64
2021/07/18 10:11:26;;;;;;;2.73;2.40;;;;;;;25.73;62.13;96768.06;4974121;28;20420;-64
2021/07/18 10:13:53;;;;;;;5.33;3.03;;;;;;;25.75;62.01;96771.19;4973715;28;20440;-63
2021/07/18 10:16:20;;;;;;;6.73;2.93;;;;;;;25.80;60.45;96763.78;4973717;28;20496;-63
2021/07/18 10:18:48;;;;;;;6.03;2.80;;;;;;;25.81;59.61;96768.06;4988029;28;20432;-62
2021/07/18 10:21:21;;;;;;;2.70;2.23;;;;;;;25.88;60.31;96763.03;4993431;28;20420;-62
2021/07/18 10:23:49;;;;;;;4.60;2.70;;;;;;;25.96;64.47;96773.00;4992808;28;20942;-62
2021/07/18 10:26:19;;;;;;;3.30;2.50;;;;;;;26.08;62.42;96770.56;4993131;28;20456;-63
2021/07/18 10:28:46;;;;;;;3.03;2.33;;;;;;;25.94;60.07;96771.75;4991320;28;20416;-63
2021/07/18 10:31:18;;;;;;;2.73;2.20;;;;;;;26.17;60.95;96765.97;4993264;28;20447;-64
2021/07/18 10:33:45;;;;;;;4.13;2.30;;;;;;;26.19;60.72;96773.72;4976455;28;20453;-64
2021/07/18 10:36:12;;;;;;;6.40;2.57;;;;;;;26.37;60.62;96768.06;4973648;28;20424;-63
2021/07/18 10:38:38;;;;;;;2.50;2.30;;;;;;;26.55;59.72;96771.53;4973050;28;20418;-69
2021/07/18 10:41:03;;;;;;;7.53;3.40;;;;;;;26.57;57.45;96768.53;4973515;28;20858;-67
2021/07/18 10:43:56;;;;;;;4.17;3.27;;;;;;;26.59;58.13;96769.00;4973029;28;20170;-64
2021/07/18 10:46:41;;;;;;;4.40;2.47;;;;;;;26.65;58.26;96768.50;4973388;28;20201;-69
2021/07/18 10:49:13;;;;;;;6.40;2.93;;;;;;;26.63;58.75;96756.47;4964214;28;20524;-67
2021/07/18 10:51:40;;;;;;;4.70;3.10;;;;;;;26.64;58.48;96764.25;4972943;28;20417;-62
2021/07/18 10:54:17;;;;;;;4.33;3.00;;;;;;;26.65;57.33;96756.97;4972800;28;21006;-68
2021/07/18 10:56:43;;;;;;;6.00;3.17;;;;;;;26.75;59.40;96753.94;4973252;28;20484;-62
2021/07/18 10:59:08;;;;;;;3.17;2.90;;;;;;;26.86;59.48;96752.50;4973223;28;20760;-68
2021/07/18 11:01:37;;;;;;;2.70;2.50;;;;;;;26.83;56.71;96753.94;4985251;28;20488;-68
2021/07/18 11:04:04;;;;;;;3.23;2.87;;;;;;;26.89;56.46;96759.97;4991722;28;20198;-68
2021/07/18 11:06:32;;;;;;;3.10;2.77;;;;;;;26.85;55.46;96762.50;4992411;28;20559;-66
2021/07/18 11:09:18;;;;;;;3.27;2.70;;;;;;;27.00;56.55;96759.31;4992544;28;20903;-63
2021/07/18 11:11:55;;;;;;;4.87;2.63;;;;;;;27.04;55.47;96756.75;4992400;28;20417;-65
2021/07/18 11:14:26;;;;;;;3.80;2.90;;;;;;;27.12;55.82;96747.88;4991698;28;20970;-65
2021/07/18 11:16:57;;;;;;;3.43;2.20;;;;;;;27.22;55.92;96755.59;4991443;28;20424;-62
2021/07/18 11:19:34;;;;;;;4.20;2.83;;;;;;;27.28;55.44;96757.84;4992332;28;20423;-61
2021/07/18 11:22:18;;;;;;;4.00;2.97;;;;;;;27.32;54.62;96750.69;4992321;28;20404;-66
2021/07/18 11:24:53;;;;;;;3.53;3.10;;;;;;;27.38;55.41;96749.41;4987546;28;20441;-66
2021/07/18 11:27:32;;;;;;;4.37;2.77;;;;;;;27.48;56.32;96750.97;4991687;28;20414;-62
2021/07/18 11:30:03;;;;;;;2.90;2.70;;;;;;;27.54;55.73;96751.56;4992079;28;20417;-58